createdAt,value
2019-02-28T00:01:31.325Z,5.01
2019-02-28T00:04:01.600Z,4.98
2019-02-28T00:06:31.728Z,4.97
2019-02-28T00:09:01.968Z,4.95
2019-02-28T00:11:39.004Z,4.92
2019-02-28T00:14:05.982Z,4.86
2019-02-28T00:16:36.409Z,4.88
2019-02-28T00:19:06.867Z,4.84
2019-02-28T00:21:37.331Z,4.81
2019-02-28T00:24:08.918Z,4.78
2019-02-28T00:26:39.255Z,4.69
2019-02-28T00:29:09.601Z,4.65
2019-02-28T00:31:39.927Z,4.65
2019-02-28T00:34:10.283Z,4.54
2019-02-28T00:36:40.385Z,4.63
2019-02-28T00:39:10.636Z,4.58
2019-02-28T00:41:44.472Z,4.56
2019-02-28T00:44:13.015Z,4.57
2019-02-28T00:46:45.151Z,4.51
2019-02-28T00:49:15.018Z,4.54
2019-02-28T00:51:45.286Z,4.55
2019-02-28T00:54:15.613Z,4.52
2019-02-28T00:56:51.599Z,4.51
2019-02-28T00:59:18.150Z,4.58
2019-02-28T01:01:48.237Z,4.66
2019-02-28T01:04:18.495Z,4.64
2019-02-28T01:06:48.976Z,4.61
2019-02-28T01:09:19.319Z,4.58
2019-02-28T01:11:49.651Z,4.60
2019-02-28T01:14:20.013Z,4.54
2019-02-28T01:16:53.012Z,4.54
2019-02-28T01:19:22.360Z,4.58
2019-02-28T01:21:55.412Z,4.55
2019-02-28T01:24:27.269Z,4.50
2019-02-28T01:26:57.297Z,4.40
2019-02-28T01:29:27.576Z,4.38
2019-02-28T01:31:57.895Z,4.43
2019-02-28T01:34:29.133Z,4.37
2019-02-28T01:37:00.337Z,4.43
2019-02-28T01:39:30.817Z,4.39
2019-02-28T01:42:01.304Z,4.32
2019-02-28T01:44:35.578Z,4.34
2019-02-28T01:47:03.445Z,4.38
2019-02-28T01:49:34.531Z,4.31
2019-02-28T01:52:09.632Z,4.41
2019-02-28T01:54:36.853Z,4.37
2019-02-28T01:57:08.992Z,4.37
2019-02-28T01:59:38.863Z,4.37
2019-02-28T02:02:09.200Z,4.40
2019-02-28T02:04:43.166Z,4.42
2019-02-28T02:07:12.486Z,4.44
2019-02-28T02:09:42.628Z,4.44
2019-02-28T02:12:14.194Z,4.37
2019-02-28T02:14:45.667Z,4.27
2019-02-28T02:17:16.234Z,4.23
2019-02-28T02:19:49.329Z,4.17
2019-02-28T02:22:18.588Z,4.14
2019-02-28T02:24:48.912Z,4.09
2019-02-28T02:27:19.495Z,4.06
2019-02-28T02:29:51.009Z,3.98
2019-02-28T02:32:21.337Z,3.99
2019-02-28T02:34:51.443Z,4.07
2019-02-28T02:37:21.687Z,4.01
2019-02-28T02:39:52.012Z,3.99
2019-02-28T02:42:22.100Z,3.93
2019-02-28T02:44:52.096Z,3.90
2019-02-28T02:47:24.017Z,3.87
2019-02-28T02:49:57.446Z,3.85
2019-02-28T02:52:30.277Z,3.81
2019-02-28T02:54:57.916Z,3.80
2019-02-28T02:57:28.159Z,3.73
2019-02-28T02:59:58.248Z,3.72
2019-02-28T03:02:28.809Z,3.71
2019-02-28T03:04:59.969Z,3.66
2019-02-28T03:07:30.225Z,3.68
2019-02-28T03:10:00.482Z,3.64
2019-02-28T03:12:31.570Z,3.67
2019-02-28T03:15:02.609Z,3.63
2019-02-28T03:17:33.774Z,3.65
2019-02-28T03:20:07.336Z,3.56
2019-02-28T03:22:38.054Z,3.58
2019-02-28T03:25:11.729Z,3.56
2019-02-28T03:27:41.747Z,3.55
2019-02-28T03:30:28.912Z,3.60
2019-02-28T03:32:51.554Z,3.54
2019-02-28T03:35:21.932Z,3.49
2019-02-28T03:37:52.269Z,3.43
2019-02-28T03:40:22.620Z,3.50
2019-02-28T03:42:52.742Z,3.49
2019-02-28T03:45:22.732Z,3.50
2019-02-28T03:47:58.395Z,3.57
2019-02-28T03:50:24.782Z,3.55
2019-02-28T03:52:54.953Z,3.50
2019-02-28T03:55:24.970Z,3.59
2019-02-28T03:57:55.236Z,3.64
2019-02-28T04:00:32.635Z,3.58
2019-02-28T04:02:59.065Z,3.62
2019-02-28T04:05:29.817Z,3.65
2019-02-28T04:07:59.880Z,3.59
2019-02-28T04:10:29.884Z,3.61
2019-02-28T04:12:59.898Z,3.58
2019-02-28T04:15:30.491Z,3.52
2019-02-28T04:18:06.892Z,3.50
2019-02-28T04:20:37.596Z,3.46
2019-02-28T04:23:04.884Z,3.30
2019-02-28T04:25:35.336Z,3.56
2019-02-28T04:28:05.509Z,3.52
2019-02-28T04:30:42.635Z,3.46
2019-02-28T04:33:07.560Z,3.40
2019-02-28T04:35:37.827Z,3.41
2019-02-28T04:38:08.174Z,3.54
2019-02-28T04:40:38.539Z,3.53
2019-02-28T04:43:10.082Z,3.45
2019-02-28T04:45:41.266Z,3.49
2019-02-28T04:48:13.887Z,3.57
2019-02-28T04:50:43.305Z,3.59
2019-02-28T04:53:13.406Z,3.59
2019-02-28T04:55:43.472Z,3.60
2019-02-28T04:58:13.466Z,3.55
2019-02-28T05:00:43.466Z,3.52
2019-02-28T05:03:13.627Z,3.55
2019-02-28T05:05:46.369Z,3.50
2019-02-28T05:08:15.923Z,3.56
2019-02-28T05:10:46.041Z,3.66
2019-02-28T05:13:16.296Z,3.66
2019-02-28T05:15:46.683Z,3.61
2019-02-28T05:18:16.746Z,3.66
2019-02-28T05:20:47.010Z,3.65
2019-02-28T05:23:17.076Z,3.66
2019-02-28T05:25:49.059Z,3.66
2019-02-28T05:28:18.790Z,3.72
2019-02-28T05:30:50.171Z,3.79
2019-02-28T05:33:20.681Z,3.82
2019-02-28T05:35:50.940Z,3.89
2019-02-28T05:38:22.567Z,3.91
2019-02-28T05:40:53.034Z,3.92
2019-02-28T05:43:25.002Z,4.06
2019-02-28T05:45:55.270Z,4.12
2019-02-28T05:48:25.597Z,4.09
2019-02-28T05:50:55.928Z,4.14
2019-02-28T05:53:26.009Z,4.19
2019-02-28T05:55:58.683Z,4.35
2019-02-28T05:58:28.001Z,4.59
2019-02-28T06:00:58.197Z,4.78
2019-02-28T06:03:29.496Z,4.96
2019-02-28T06:05:59.976Z,5.17
2019-02-28T06:08:30.402Z,5.22
2019-02-28T06:11:01.422Z,5.49
2019-02-28T06:13:31.860Z,5.62
2019-02-28T06:16:02.184Z,5.71
2019-02-28T06:18:33.521Z,5.87
2019-02-28T06:21:03.950Z,6.14
2019-02-28T06:23:34.278Z,6.60
2019-02-28T06:26:04.400Z,6.87
2019-02-28T06:28:34.384Z,7.33
2019-02-28T06:31:04.402Z,7.84
2019-02-28T06:33:34.531Z,7.98
2019-02-28T06:36:04.783Z,8.01
2019-02-28T06:38:34.838Z,7.99
2019-02-28T06:41:07.618Z,8.20
2019-02-28T06:43:37.642Z,8.75
2019-02-28T06:46:08.529Z,9.51
2019-02-28T06:48:40.582Z,9.95
2019-02-28T06:51:10.911Z,10.33
2019-02-28T06:53:41.780Z,11.18
2019-02-28T06:56:12.858Z,11.72
2019-02-28T06:58:44.216Z,11.37
2019-02-28T07:01:14.555Z,10.90
2019-02-28T07:03:53.279Z,10.50
2019-02-28T07:06:16.686Z,10.12
2019-02-28T07:08:46.884Z,9.88
2019-02-28T07:11:19.930Z,9.65
2019-02-28T07:13:49.161Z,9.73
2019-02-28T07:16:19.284Z,10.27
2019-02-28T07:18:52.945Z,11.13
2019-02-28T07:21:23.471Z,11.70
2019-02-28T07:23:53.576Z,11.98
2019-02-28T07:26:23.612Z,11.99
2019-02-28T07:28:53.887Z,12.06
2019-02-28T07:31:24.671Z,12.28
2019-02-28T07:33:59.002Z,12.61
2019-02-28T07:36:29.573Z,13.39
2019-02-28T07:39:01.337Z,14.00
2019-02-28T07:41:33.607Z,14.33
2019-02-28T07:44:05.287Z,15.10
2019-02-28T07:46:35.398Z,15.74
2019-02-28T07:49:05.448Z,16.34
2019-02-28T07:51:35.462Z,16.63
2019-02-28T07:54:05.605Z,17.06
2019-02-28T07:56:42.737Z,17.81
2019-02-28T07:59:08.602Z,18.45
2019-02-28T08:01:38.894Z,19.30
2019-02-28T08:04:11.972Z,19.96
2019-02-28T08:06:43.332Z,20.79
2019-02-28T08:09:27.932Z,21.09
2019-02-28T08:11:57.997Z,20.79
2019-02-28T08:14:28.029Z,21.01
2019-02-28T08:17:00.658Z,21.74
2019-02-28T08:19:30.947Z,21.75
2019-02-28T08:22:01.065Z,21.37
2019-02-28T08:24:31.912Z,21.52
2019-02-28T08:27:03.618Z,21.33
2019-02-28T08:29:35.561Z,21.12
2019-02-28T08:32:07.815Z,20.99
2019-02-28T08:34:37.376Z,20.99
2019-02-28T08:37:08.334Z,20.70
2019-02-28T08:39:41.177Z,20.24
2019-02-28T08:42:10.712Z,20.62
2019-02-28T08:44:42.523Z,20.73
2019-02-28T08:47:12.818Z,20.61
2019-02-28T08:49:45.568Z,20.66
2019-02-28T08:52:16.099Z,21.25
2019-02-28T08:54:47.795Z,21.69
2019-02-28T08:57:17.823Z,21.98
2019-02-28T08:59:48.093Z,22.08
2019-02-28T09:02:19.052Z,21.92
2019-02-28T09:04:51.044Z,21.72
2019-02-28T09:07:21.136Z,21.65
2019-02-28T09:09:51.144Z,22.00
2019-02-28T09:12:21.413Z,22.15
2019-02-28T09:14:51.979Z,22.19
2019-02-28T09:17:23.824Z,22.26
2019-02-28T09:19:53.889Z,22.26
2019-02-28T09:22:27.006Z,22.24
2019-02-28T09:24:56.960Z,21.88
2019-02-28T09:27:28.687Z,21.11
2019-02-28T09:29:58.699Z,20.96
2019-02-28T09:32:29.883Z,20.57
2019-02-28T09:35:02.520Z,20.44
2019-02-28T09:37:33.853Z,20.25
2019-02-28T09:40:05.570Z,20.24
2019-02-28T09:42:36.053Z,20.61
2019-02-28T09:45:11.992Z,21.08
2019-02-28T09:47:42.276Z,21.22
2019-02-28T09:50:19.397Z,21.22
2019-02-28T09:52:49.821Z,21.22
2019-02-28T09:55:20.390Z,21.33
2019-02-28T09:57:54.840Z,21.42
2019-02-28T10:00:28.617Z,21.23
2019-02-28T10:02:58.972Z,21.50
2019-02-28T10:05:31.833Z,21.28
2019-02-28T10:08:03.067Z,21.32
2019-02-28T10:10:34.111Z,21.08
2019-02-28T10:13:04.342Z,21.06
2019-02-28T10:15:34.684Z,20.88
2019-02-28T10:18:08.192Z,20.79
2019-02-28T10:20:41.796Z,20.55
2019-02-28T10:23:11.872Z,20.24
2019-02-28T10:25:43.672Z,20.05
2019-02-28T10:28:14.048Z,19.67
2019-02-28T10:30:44.087Z,19.44
2019-02-28T10:33:17.394Z,19.28
2019-02-28T10:35:46.169Z,18.59
2019-02-28T10:38:16.515Z,17.45
2019-02-28T10:40:49.317Z,16.58
2019-02-28T10:43:18.893Z,15.70
2019-02-28T10:45:48.973Z,15.02
2019-02-28T10:48:20.680Z,14.26
2019-02-28T10:50:50.720Z,13.69
2019-02-28T10:53:22.809Z,13.21
2019-02-28T10:55:54.474Z,13.04
2019-02-28T10:58:24.549Z,13.04
2019-02-28T11:00:54.575Z,12.81
2019-02-28T11:03:24.582Z,12.55
2019-02-28T11:05:54.634Z,12.46
2019-02-28T11:08:24.899Z,12.39
2019-02-28T11:10:54.972Z,12.16
2019-02-28T11:13:25.255Z,12.13
2019-02-28T11:15:55.330Z,12.00
2019-02-28T11:18:25.665Z,11.90
2019-02-28T11:20:58.141Z,11.90
2019-02-28T11:23:28.396Z,11.90
2019-02-28T11:25:58.428Z,11.97
2019-02-28T11:28:29.839Z,12.06
2019-02-28T11:30:59.860Z,12.00
2019-02-28T11:33:30.861Z,11.92
2019-02-28T11:36:00.937Z,11.62
2019-02-28T11:38:31.212Z,11.58
2019-02-28T11:41:01.573Z,11.49
2019-02-28T11:43:37.554Z,11.43
2019-02-28T11:46:04.341Z,11.37
2019-02-28T11:48:34.466Z,11.31
2019-02-28T11:51:04.745Z,11.39
2019-02-28T11:53:39.275Z,11.50
2019-02-28T11:56:07.085Z,11.51
2019-02-28T11:58:37.631Z,11.43
2019-02-28T12:01:10.624Z,11.48
2019-02-28T12:03:41.078Z,11.56
2019-02-28T12:06:11.093Z,11.50
2019-02-28T12:08:44.540Z,11.36
2019-02-28T12:11:13.159Z,11.41
2019-02-28T12:13:44.237Z,11.34
2019-02-28T12:16:16.209Z,11.42
2019-02-28T12:18:45.998Z,11.40
2019-02-28T12:21:16.074Z,11.41
2019-02-28T12:23:46.344Z,11.40
2019-02-28T12:26:17.729Z,11.38
2019-02-28T12:28:48.404Z,11.45
2019-02-28T12:31:18.494Z,11.44
2019-02-28T12:33:48.511Z,11.40
2019-02-28T12:36:18.520Z,11.31
2019-02-28T12:38:48.808Z,11.24
2019-02-28T12:41:21.585Z,11.25
2019-02-28T12:43:50.884Z,11.13
2019-02-28T12:46:22.772Z,11.18
2019-02-28T12:48:54.618Z,11.09
2019-02-28T12:51:32.417Z,11.13
2019-02-28T12:54:02.764Z,11.05
2019-02-28T12:56:34.731Z,11.07
2019-02-28T12:59:04.934Z,11.03
2019-02-28T13:01:40.313Z,11.04
2019-02-28T13:04:10.685Z,10.99
2019-02-28T13:06:41.653Z,10.94
2019-02-28T13:09:13.588Z,11.00
2019-02-28T13:11:44.824Z,10.96
2019-02-28T13:14:14.914Z,10.95
2019-02-28T13:16:45.198Z,10.83
2019-02-28T13:19:16.433Z,10.77
2019-02-28T13:21:48.113Z,10.69
2019-02-28T13:24:19.674Z,10.68
2019-02-28T13:26:50.021Z,10.60
2019-02-28T13:29:22.069Z,10.63
2019-02-28T13:31:52.086Z,10.70
2019-02-28T13:34:25.246Z,10.87
2019-02-28T13:37:01.992Z,10.84
2019-02-28T13:39:27.377Z,10.77
2019-02-28T13:42:03.127Z,10.72
2019-02-28T13:44:36.296Z,10.66
2019-02-28T13:47:09.049Z,10.68
2019-02-28T13:49:38.459Z,10.75
2019-02-28T13:52:09.092Z,10.93
2019-02-28T13:54:42.142Z,11.03
2019-02-28T13:57:12.583Z,11.08
2019-02-28T13:59:43.076Z,11.10
2019-02-28T14:02:13.705Z,11.00
2019-02-28T14:04:44.375Z,10.93
2019-02-28T14:07:15.337Z,10.85
2019-02-28T14:09:45.719Z,10.76
2019-02-28T14:12:17.001Z,10.69
2019-02-28T14:14:47.916Z,10.71
2019-02-28T14:17:17.946Z,10.65
2019-02-28T14:19:48.608Z,10.60
2019-02-28T14:22:18.689Z,10.57
2019-02-28T14:24:48.958Z,10.61
2019-02-28T14:27:21.598Z,10.69
2019-02-28T14:29:51.395Z,10.61
2019-02-28T14:32:21.744Z,10.63
2019-02-28T14:34:51.773Z,10.56
2019-02-28T14:37:23.142Z,10.40
2019-02-28T14:39:53.489Z,10.43
2019-02-28T14:42:23.825Z,10.32
2019-02-28T14:44:55.236Z,10.23
2019-02-28T14:47:28.521Z,10.08
2019-02-28T14:49:58.274Z,9.96
2019-02-28T14:52:28.534Z,9.86
2019-02-28T14:54:58.913Z,9.85
2019-02-28T14:57:28.988Z,9.74
2019-02-28T15:00:00.042Z,9.73
2019-02-28T15:02:32.230Z,9.69
2019-02-28T15:05:02.588Z,9.55
2019-02-28T15:07:35.341Z,9.60
2019-02-28T15:10:09.484Z,9.54
2019-02-28T15:12:43.527Z,9.55
2019-02-28T15:15:19.557Z,9.54
2019-02-28T15:17:50.184Z,9.52
2019-02-28T15:20:21.886Z,9.48
2019-02-28T15:22:52.486Z,9.40
2019-02-28T15:25:29.492Z,9.36
2019-02-28T15:28:01.934Z,9.34
2019-02-28T15:30:35.097Z,9.32
2019-02-28T15:33:06.068Z,9.27
2019-02-28T15:35:41.346Z,9.21
2019-02-28T15:38:11.634Z,9.15
2019-02-28T15:40:47.053Z,9.16
2019-02-28T15:43:18.421Z,9.09
2019-02-28T15:45:48.950Z,9.03
2019-02-28T15:48:19.150Z,8.92
2019-02-28T15:50:51.931Z,8.86
2019-02-28T15:53:20.872Z,8.85
2019-02-28T15:55:51.916Z,8.82
2019-02-28T15:58:21.923Z,8.78
2019-02-28T16:00:53.754Z,8.65
2019-02-28T16:03:24.017Z,8.56
2019-02-28T16:05:56.213Z,8.48
2019-02-28T16:08:28.331Z,8.36
2019-02-28T16:10:58.923Z,8.29
2019-02-28T16:13:29.113Z,8.11
2019-02-28T16:16:01.193Z,8.06
2019-02-28T16:18:32.080Z,8.02
2019-02-28T16:21:03.497Z,7.93
2019-02-28T16:23:34.093Z,7.86
2019-02-28T16:26:07.767Z,7.82
2019-02-28T16:28:39.548Z,7.76
2019-02-28T16:31:09.641Z,7.73
2019-02-28T16:33:39.931Z,7.70
2019-02-28T16:36:09.989Z,7.62
2019-02-28T16:38:42.428Z,7.56
2019-02-28T16:41:12.051Z,7.50
2019-02-28T16:43:42.319Z,7.51
2019-02-28T16:46:15.481Z,7.45
2019-02-28T16:48:44.726Z,7.31
2019-02-28T16:51:15.090Z,7.28
2019-02-28T16:53:48.876Z,7.26
2019-02-28T16:56:19.344Z,7.18
2019-02-28T16:58:49.338Z,7.05
2019-02-28T17:01:20.601Z,6.89
2019-02-28T17:03:51.302Z,6.76
2019-02-28T17:06:23.024Z,6.63
2019-02-28T17:08:55.343Z,6.58
2019-02-28T17:11:25.587Z,6.47
2019-02-28T17:13:57.509Z,6.34
2019-02-28T17:16:33.744Z,6.24
2019-02-28T17:19:04.647Z,6.14
2019-02-28T17:21:35.077Z,6.12
2019-02-28T17:24:08.649Z,6.07
2019-02-28T17:26:45.301Z,5.97
2019-02-28T17:29:21.531Z,5.91
2019-02-28T17:31:51.985Z,5.91
2019-02-28T17:34:24.524Z,5.86
2019-02-28T17:36:54.665Z,5.88
2019-02-28T17:39:26.258Z,5.85
2019-02-28T17:41:56.325Z,5.83
2019-02-28T17:44:41.870Z,5.78
2019-02-28T17:47:36.676Z,5.81
2019-02-28T17:50:46.977Z,5.81
2019-02-28T17:53:35.231Z,5.76
2019-02-28T17:56:40.767Z,5.76
2019-02-28T17:59:36.075Z,5.66
2019-02-28T18:02:38.142Z,5.67
2019-02-28T18:05:33.804Z,5.70
2019-02-28T18:08:38.467Z,5.62
2019-02-28T18:11:30.870Z,5.58
2019-02-28T18:14:23.071Z,5.52
2019-02-28T18:17:09.835Z,5.44
2019-02-28T18:20:19.530Z,5.34
2019-02-28T18:23:03.739Z,5.27
2019-02-28T18:25:37.111Z,5.28
2019-02-28T18:28:22.544Z,5.20
2019-02-28T18:31:13.569Z,5.25
2019-02-28T18:33:54.152Z,5.22
2019-02-28T18:36:29.878Z,5.14
2019-02-28T18:39:00.966Z,5.09
2019-02-28T18:41:32.676Z,5.01
2019-02-28T18:44:03.653Z,4.98
2019-02-28T18:46:34.571Z,5.03
2019-02-28T18:49:04.610Z,5.03
2019-02-28T18:51:34.607Z,5.02
2019-02-28T18:54:04.677Z,4.98
2019-02-28T18:56:36.799Z,5.07
2019-02-28T18:59:07.989Z,5.18
2019-02-28T19:01:38.289Z,5.35
2019-02-28T19:04:08.314Z,5.49
2019-02-28T19:06:38.569Z,5.64
2019-02-28T19:09:23.182Z,5.77
2019-02-28T19:11:53.180Z,5.82
2019-02-28T19:14:23.279Z,5.88
2019-02-28T19:16:53.303Z,5.84
2019-02-28T19:19:23.325Z,5.85
2019-02-28T19:21:53.434Z,6.21
2019-02-28T19:24:23.435Z,6.18
2019-02-28T19:26:53.458Z,6.13
2019-02-28T19:29:23.775Z,6.23
2019-02-28T19:31:54.069Z,6.14
2019-02-28T19:34:24.165Z,6.08
2019-02-28T19:36:54.175Z,5.88
2019-02-28T19:39:25.637Z,5.84
2019-02-28T19:41:57.652Z,5.76
2019-02-28T19:44:30.211Z,5.70
2019-02-28T19:47:00.327Z,5.64
2019-02-28T19:49:30.329Z,5.51
2019-02-28T19:52:00.319Z,5.52
2019-02-28T19:54:30.591Z,5.39
2019-02-28T19:57:01.579Z,5.44
2019-02-28T19:59:31.670Z,5.31
2019-02-28T20:02:01.663Z,5.24
2019-02-28T20:04:31.982Z,5.22
2019-02-28T20:07:02.058Z,5.18
2019-02-28T20:09:32.065Z,5.10
2019-02-28T20:12:02.064Z,5.18
2019-02-28T20:14:33.159Z,5.12
2019-02-28T20:17:03.415Z,5.07
2019-02-28T20:19:33.534Z,5.02
2019-02-28T20:22:03.545Z,5.00
2019-02-28T20:24:33.546Z,5.01
2019-02-28T20:27:03.612Z,4.96
2019-02-28T20:29:33.918Z,4.94
2019-02-28T20:32:04.278Z,4.89
2019-02-28T20:34:36.296Z,4.89
2019-02-28T20:37:06.421Z,4.82
2019-02-28T20:39:36.437Z,4.75
2019-02-28T20:42:06.464Z,4.66
2019-02-28T20:44:38.977Z,4.60
2019-02-28T20:47:09.783Z,4.56
2019-02-28T20:49:40.297Z,4.48
2019-02-28T20:52:10.365Z,4.39
2019-02-28T20:54:40.657Z,4.35
2019-02-28T20:57:10.999Z,4.32
2019-02-28T20:59:41.136Z,4.29
2019-02-28T21:02:11.180Z,4.23
2019-02-28T21:04:41.703Z,4.11
2019-02-28T21:07:12.044Z,3.99
2019-02-28T21:09:44.950Z,3.87
2019-02-28T21:12:14.495Z,3.74
2019-02-28T21:14:44.650Z,3.69
2019-02-28T21:17:14.709Z,3.60
2019-02-28T21:19:44.711Z,3.46
2019-02-28T21:22:14.893Z,3.35
2019-02-28T21:24:46.583Z,3.28
2019-02-28T21:27:16.851Z,3.17
2019-02-28T21:29:47.185Z,3.08
2019-02-28T21:32:17.245Z,2.99
2019-02-28T21:34:47.521Z,2.94
2019-02-28T21:37:17.843Z,2.96
2019-02-28T21:39:48.193Z,2.86
2019-02-28T21:42:18.678Z,2.77
2019-02-28T21:44:49.026Z,2.74
2019-02-28T21:47:19.348Z,2.73
2019-02-28T21:49:52.965Z,2.67
2019-02-28T21:52:24.090Z,2.58
2019-02-28T21:54:54.428Z,2.60
2019-02-28T21:57:24.779Z,2.49
2019-02-28T21:59:55.168Z,2.45
2019-02-28T22:02:29.637Z,2.37
2019-02-28T22:04:59.726Z,2.22
2019-02-28T22:07:29.730Z,2.18
2019-02-28T22:09:59.732Z,2.21
2019-02-28T22:12:29.985Z,2.19
2019-02-28T22:15:00.327Z,2.21
2019-02-28T22:17:30.629Z,2.18
2019-02-28T22:20:00.980Z,2.25
2019-02-28T22:22:31.321Z,2.14
2019-02-28T22:25:01.664Z,2.05
2019-02-28T22:27:32.101Z,2.07
2019-02-28T22:30:04.094Z,2.04
2019-02-28T22:32:37.572Z,2.02
2019-02-28T22:35:09.294Z,2.03
2019-02-28T22:37:39.575Z,1.98
2019-02-28T22:40:09.951Z,2.05
2019-02-28T22:42:40.012Z,2.03
2019-02-28T22:45:10.057Z,2.11
2019-02-28T22:47:40.384Z,2.06
2019-02-28T22:50:10.756Z,2.10
2019-02-28T22:52:41.074Z,2.12
2019-02-28T22:55:11.139Z,2.09
2019-02-28T22:57:41.148Z,2.09
2019-02-28T23:00:32.128Z,2.06
2019-02-28T23:03:04.066Z,2.02
2019-02-28T23:05:34.443Z,2.09
2019-02-28T23:08:04.757Z,2.06
2019-02-28T23:10:34.833Z,2.08
2019-02-28T23:13:04.830Z,2.09
2019-02-28T23:15:36.631Z,2.06
2019-02-28T23:18:08.264Z,1.99
2019-02-28T23:20:38.591Z,2.04
2019-02-28T23:23:08.663Z,2.01
2019-02-28T23:25:38.685Z,1.98
2019-02-28T23:28:26.193Z,1.96
2019-02-28T23:31:16.239Z,1.88
2019-02-28T23:33:47.882Z,1.95
2019-02-28T23:36:18.171Z,1.93
2019-02-28T23:38:48.533Z,1.89
2019-02-28T23:41:19.816Z,1.82
2019-02-28T23:43:49.944Z,1.80
2019-02-28T23:46:20.180Z,1.84
2019-02-28T23:48:50.348Z,1.82
2019-02-28T23:51:20.349Z,1.76
2019-02-28T23:53:50.626Z,1.81
2019-02-28T23:56:20.697Z,1.76
2019-02-28T23:58:50.980Z,1.78
